Monday, May 30, 2016
08:50 UTC
  |  Log In   |  Register Free
Airport Search:

La Porte Municipal Airport
(T41)

La Porte Municipal Airport Diagram
No Airport Diagram Available

FAA data valid effective Mar 31 2016 - May 26 2016 (unless otherwise noted).

 
 
 
 
 
 
 
 
 
 
 
 
 
 
Current Aviation Weather for T41

Weather Summary


Current weather conditions are not available for T41 - The nearest NOAA weather station is at EFD, (6.2 nm SW from T41)

The most recent METAR observation for T41 was updated at: 12:50 UTC
METAR for T41 is not available. Closest METAR is for KLVJ 12.9 nm NE
KLVJ  (12.9 nm NE)   (most recent observation was updated at 30:07 UTC)
300753Z AUTO 00000KT 10SM CLR 22/21 A3001 RMK AO2 SLP161 T02220211

KAXH  (23.7 nm NE)   (most recent observation was updated at 30:08 UTC)
300835Z AUTO 00000KT 1SM BR OVC010 21/21 A2999 RMK AO2 LTG DSNT W AND NW T02070205

TAF for T41 is not available.
KEFD  (6.2 nm NE)   (most recent observation was updatred at 30:04 UTC)
300400Z 3004/3110 VRB06KT 9999 FEW010 BKN200 QNH2999INS BECMG 3015/3016 12009KT 9999 SCT030 BKN200 QNH2995INS BECMG 3101/3102 VRB06KT 9999 FEW020 SCT200 QNH2990INS TX31/3021Z TN22/3010Z


KHOU
300520Z 3006/3106 VRB03KT P6SM BKN250 FM301000 VRB04KT P6SM FEW015 BKN250 FM301500 14005KT P6SM BKN025 BKN150 FM301700 15007KT P6SM SCT040 BKN150 FM302100 14008KT P6SM SCT040 SCT150 FM310100 14005KT P6SM FEW025 SCT250

KIAH  (23.8 nm SE)   (most recent observation was updatred at 30:05 UTC)
300520Z 3006/3112 16004KT P6SM FEW020 SCT250 FM301000 17004KT P6SM FEW015 SCT150 FM301400 14005KT P6SM BKN025 BKN150 FM301700 15007KT P6SM SCT035 BKN150 FM302200 14008KT P6SM SCT045 SCT150 FM310200 15005KT P6SM SCT250 FM310600 VRB04KT P6SM FEW015 SCT250
GlobalAir.com is loading additional information.
 Current Weather at EFD
75.0 F° (24.0 C°)

North winds at 0.0 mph
Pressure:
30.03 in
Humidity:
89%
Wind:
North at 0.0 mph
Dew Point:
71.6 F° (22.0 C°)
Visibility:
10.00 mi
T41 NOAA Radar




Find All Airport Services Find A Hotel Find A Rental Car Find A Golf Course Find A Restaurant $100 Hamburger



Airport Weather Forecast for T41

Translated METAR for KHOU (0753 UTC)
METAR:
KHOU 300753Z COR 00000KT 10SM SCT250 22/22 A2999 RMK AO2 SLP160 T02220217
Conditions at:
KHOU (William P Hobby, TX) observed 0753 UTC 30 May 2016
Temperature:
22°C (71.6°F)
Dewpoint:
22°C (71.6°F) [RH = 100]
Pressure:
29.99 inches Hg (1015.6 mb)
pressure at sea level is 160 in Hg
Winds:
from the N (000 degrees) at 0 mph (0 knots: 0 m/s)
Visibility:
10 mile(s)
Ceiling:
at least 12,000 feet AGL
Clouds:
Scattered Clouds at 25,000 feet AGL
Remarks:
site is automated and HAS a precipitation sensor

Translated TAF for KEFD (Ellington, TX) (0400 UTC)
TAF text:
KEFD 300400Z 3004/3110 VRB06KT 9999 FEW010 BKN200 QNH2999INS BECMG 3015/3016 12009KT 9999 SCT030 BKN200 QNH2995INS BECMG 3101/3102 VRB06KT 9999 FEW020 SCT200 QNH2990INS TX31/3021Z TN22/3010Z
Forecast period:
Monday May 30 2016 04:00 UTC - Tuesday May 31 2016 10:00 UTC
Forecast type:
FROM: standard forecast or significant change
Winds:
variable wind direction at 6.9 mph (6 knots: 3.1 m/s)
Visibility:
Ceiling:
20,000 feet AGL
20,000 feet AGL
at least 12,000 feet AGL
Clouds:
Few Clouds at 1,000 feet AGL
Broken Cloud Cover at 20,000 feet AGL
Scattered Clouds at 3,000 feet AGL
Broken Cloud Cover at 20,000 feet AGL
Few Clouds at 2,000 feet AGL
Scattered Clouds at 20,000 feet AGL
Weather:
no significant weather observed at this time
FBO's on the Field
FBO Company Facility Photos Services Transportation Aviation Fuel Prices: Prices include tax
Catering Weather Repair Courtesy Rental Type 100LL JetA JetA+ MOGAS 8087
 
Harvey & Rihn Aviation

This FBO has not yet been rated
FS:Independent
Last Updated: May-27
Login to update fuel prices
SS:
Contact Harvey & Rihn AviationMore FBO Information
 
Tri-Star Aviation

This FBO has not yet been rated
FS:Avfuel
Last Updated: May-26
Login to update fuel prices
SS:
Contact Tri-Star AviationMore FBO Information
 
Add another FBO Facility Photos Catering Weather Repair Courtesy Rental Type 100LL JetA JetA+ MOGAS 8087
Services Transportation Aviation Fuel Prices: Prices include tax


model-print
model-print
model-print
model-print